createdAt,value
2024-04-30T00:05:57.000Z,60
2024-04-30T00:15:57.219Z,60
2024-04-30T00:25:57.397Z,60
2024-04-30T00:35:57.730Z,61
2024-04-30T00:45:57.835Z,62
2024-04-30T00:55:57.999Z,62
2024-04-30T01:05:58.261Z,62
2024-04-30T01:15:58.469Z,62
2024-04-30T01:25:58.606Z,62
2024-04-30T01:35:58.825Z,63
2024-04-30T01:45:59.072Z,63
2024-04-30T01:55:59.205Z,63
2024-04-30T02:05:59.432Z,64
2024-04-30T02:15:59.616Z,64
2024-04-30T02:25:59.811Z,63
2024-04-30T02:36:00.002Z,64
2024-04-30T02:46:00.315Z,64
2024-04-30T02:56:00.484Z,65
2024-04-30T03:06:00.608Z,65
2024-04-30T03:16:00.833Z,66
2024-04-30T03:26:01.002Z,66
2024-04-30T03:36:01.204Z,67
2024-04-30T03:46:01.570Z,68
2024-04-30T03:56:01.659Z,69
2024-04-30T04:06:01.842Z,70
2024-04-30T04:16:02.037Z,70
2024-04-30T04:26:02.210Z,71
2024-04-30T04:36:02.431Z,72
2024-04-30T04:46:02.688Z,73
2024-04-30T04:56:02.856Z,73
2024-04-30T05:06:03.037Z,74
2024-04-30T05:16:03.216Z,74
2024-04-30T05:26:03.415Z,75
2024-04-30T05:36:03.624Z,75
2024-04-30T05:46:03.898Z,75
2024-04-30T05:56:04.026Z,75
2024-04-30T06:06:04.221Z,75
2024-04-30T06:26:04.697Z,73
2024-04-30T06:36:04.813Z,72
2024-04-30T06:46:05.069Z,71
2024-04-30T06:56:05.227Z,71
2024-04-30T07:06:05.443Z,69
2024-04-30T07:26:05.910Z,66
2024-04-30T07:36:06.036Z,65
2024-04-30T07:46:06.252Z,64
2024-04-30T07:56:06.477Z,63
2024-04-30T08:06:10.305Z,61
2024-04-30T08:16:06.894Z,60
2024-04-30T08:26:07.025Z,59
2024-04-30T08:36:07.254Z,59
2024-04-30T08:46:07.529Z,58
2024-04-30T08:56:09.862Z,58
2024-04-30T09:06:07.821Z,57
2024-04-30T09:16:08.083Z,56
2024-04-30T09:26:08.219Z,55
2024-04-30T09:36:09.462Z,55
2024-04-30T09:46:08.803Z,54
2024-04-30T09:56:08.816Z,53
2024-04-30T10:06:09.009Z,53
2024-04-30T10:16:09.230Z,53
2024-04-30T10:26:09.407Z,53
2024-04-30T10:36:09.622Z,53
2024-04-30T10:46:09.814Z,53
2024-04-30T10:56:10.109Z,53
2024-04-30T11:16:11.232Z,53
2024-04-30T11:26:10.601Z,52
2024-04-30T11:36:10.834Z,53
2024-04-30T11:46:11.086Z,53
2024-04-30T11:56:11.216Z,52
2024-04-30T12:16:11.624Z,52
2024-04-30T12:26:11.810Z,52
2024-04-30T12:36:11.990Z,52
2024-04-30T12:46:12.286Z,51
2024-04-30T12:56:12.392Z,50
2024-04-30T13:16:12.845Z,50
2024-04-30T13:26:12.990Z,49
2024-04-30T13:46:13.402Z,50
2024-04-30T13:56:13.657Z,49
2024-04-30T14:06:13.781Z,49
2024-04-30T14:16:13.993Z,48
2024-04-30T14:26:14.207Z,48
2024-04-30T14:36:14.382Z,48
2024-04-30T14:46:14.625Z,48
2024-04-30T14:56:14.791Z,48
2024-04-30T15:06:14.985Z,48
2024-04-30T15:16:15.265Z,47
2024-04-30T15:26:15.468Z,48
2024-04-30T15:36:15.620Z,48
2024-04-30T15:46:15.803Z,47
2024-04-30T15:56:17.096Z,47
2024-04-30T16:06:16.186Z,46
2024-04-30T16:16:18.243Z,46
2024-04-30T16:26:16.575Z,46
2024-04-30T16:36:16.829Z,48
2024-04-30T16:46:16.981Z,48
2024-04-30T16:56:17.179Z,48
2024-04-30T17:06:17.410Z,48
2024-04-30T17:26:17.788Z,49
2024-04-30T17:36:17.981Z,50
2024-04-30T17:56:18.417Z,51
2024-04-30T18:06:18.677Z,51
2024-04-30T18:16:18.785Z,51
2024-04-30T18:26:19.005Z,51
2024-04-30T18:36:19.217Z,52
2024-04-30T18:46:19.400Z,53
2024-04-30T18:56:19.575Z,54
2024-04-30T19:06:19.872Z,55
2024-04-30T19:16:19.966Z,55
2024-04-30T19:26:20.226Z,56
2024-04-30T19:36:20.450Z,57
2024-04-30T19:46:20.583Z,57
2024-04-30T19:56:20.774Z,58
2024-04-30T20:06:21.026Z,59
2024-04-30T20:26:21.367Z,59
2024-04-30T20:36:21.594Z,59
2024-04-30T20:46:21.790Z,60
2024-04-30T20:56:21.995Z,60
2024-04-30T21:06:22.187Z,61
2024-04-30T21:16:22.355Z,61
2024-04-30T21:26:22.559Z,62
2024-04-30T21:36:22.827Z,63
2024-04-30T21:46:22.962Z,63
2024-04-30T21:56:23.164Z,64
2024-04-30T22:06:23.422Z,65
2024-04-30T22:16:23.563Z,65
2024-04-30T22:26:23.752Z,66
2024-04-30T22:36:23.951Z,67
2024-04-30T23:06:24.580Z,68
2024-04-30T23:16:24.750Z,69
2024-04-30T23:26:24.952Z,69
2024-04-30T23:36:25.202Z,70
2024-04-30T23:46:25.405Z,71
2024-04-30T23:56:25.552Z,71
